createdAt,value
2017-05-18T00:01:47.519Z,14.70
2017-05-18T00:04:14.930Z,14.60
2017-05-18T00:06:42.592Z,14.60
2017-05-18T00:09:10.023Z,14.60
2017-05-18T00:11:38.325Z,14.50
2017-05-18T00:14:05.730Z,14.60
2017-05-18T00:16:33.366Z,14.50
2017-05-18T00:19:00.804Z,14.40
2017-05-18T00:21:28.341Z,14.40
2017-05-18T00:23:55.923Z,14.40
2017-05-18T00:26:23.359Z,14.40
2017-05-18T00:28:50.824Z,14.40
2017-05-18T00:31:18.225Z,14.40
2017-05-18T00:33:45.666Z,14.30
2017-05-18T00:36:13.041Z,14.20
2017-05-18T00:38:40.434Z,14.10
2017-05-18T00:41:08.609Z,14.20
2017-05-18T00:43:36.071Z,14.20
2017-05-18T00:46:03.493Z,14.10
2017-05-18T00:48:30.931Z,14.10
2017-05-18T00:50:58.334Z,14.00
2017-05-18T00:53:25.848Z,14.00
2017-05-18T00:55:53.275Z,14.10
2017-05-18T00:58:20.690Z,14.00
2017-05-18T01:00:48.878Z,14.00
2017-05-18T01:03:17.054Z,14.00
2017-05-18T01:05:44.620Z,14.00
2017-05-18T01:08:12.092Z,13.90
2017-05-18T01:10:39.541Z,13.90
2017-05-18T01:13:06.910Z,13.90
2017-05-18T01:15:34.307Z,13.90
2017-05-18T01:18:01.785Z,13.70
2017-05-18T01:20:30.053Z,13.70
2017-05-18T01:22:57.530Z,13.70
2017-05-18T01:25:24.973Z,13.70
2017-05-18T01:27:52.430Z,13.80
2017-05-18T01:30:20.565Z,13.70
2017-05-18T01:32:47.994Z,13.70
2017-05-18T01:35:15.416Z,13.70
2017-05-18T01:37:42.838Z,13.60
2017-05-18T01:40:10.324Z,13.50
2017-05-18T01:42:39.765Z,13.50
2017-05-18T01:45:07.232Z,13.50
2017-05-18T01:47:34.688Z,13.40
2017-05-18T01:50:02.086Z,13.30
2017-05-18T01:52:30.409Z,13.30
2017-05-18T01:54:57.833Z,13.40
2017-05-18T01:57:25.998Z,13.30
2017-05-18T01:59:53.454Z,13.30
2017-05-18T02:02:20.851Z,13.30
2017-05-18T02:04:48.246Z,13.20
2017-05-18T02:07:15.695Z,13.20
2017-05-18T02:09:43.103Z,13.20
2017-05-18T02:12:10.520Z,13.20
2017-05-18T02:14:37.997Z,13.20
2017-05-18T02:17:05.440Z,13.20
2017-05-18T02:19:33.653Z,13.10
2017-05-18T02:22:01.063Z,13.20
2017-05-18T02:24:29.526Z,13.00
2017-05-18T02:26:57.135Z,13.00
2017-05-18T02:29:24.542Z,13.00
2017-05-18T02:31:52.921Z,12.90
2017-05-18T02:34:20.326Z,12.90
2017-05-18T02:36:47.945Z,12.90
2017-05-18T02:39:15.378Z,12.90
2017-05-18T02:41:42.825Z,12.90
2017-05-18T02:44:10.209Z,12.90
2017-05-18T02:46:37.709Z,12.80
2017-05-18T02:49:05.131Z,12.80
2017-05-18T02:51:33.409Z,12.80
2017-05-18T02:54:00.837Z,12.80
2017-05-18T02:56:29.141Z,12.80
2017-05-18T02:58:56.783Z,12.80
2017-05-18T03:01:24.955Z,12.70
2017-05-18T03:03:52.352Z,12.70
2017-05-18T03:06:20.491Z,12.70
2017-05-18T03:08:47.918Z,12.70
2017-05-18T03:11:15.306Z,12.80
2017-05-18T03:13:42.724Z,12.70
2017-05-18T03:16:10.126Z,12.70
2017-05-18T03:18:38.332Z,12.80
2017-05-18T03:21:05.776Z,12.90
2017-05-18T03:23:34.143Z,12.80
2017-05-18T03:26:02.267Z,12.90
2017-05-18T03:28:29.643Z,12.90
2017-05-18T03:30:57.122Z,12.90
2017-05-18T03:33:25.282Z,12.80
2017-05-18T03:35:52.698Z,12.90
2017-05-18T03:38:20.183Z,12.90
2017-05-18T03:40:47.574Z,13.00
2017-05-18T03:43:16.113Z,13.00
2017-05-18T03:45:44.350Z,13.00
2017-05-18T03:48:11.766Z,13.20
2017-05-18T03:50:40.017Z,13.30
2017-05-18T03:53:08.187Z,13.20
2017-05-18T03:55:35.864Z,13.30
2017-05-18T03:58:03.280Z,13.40
2017-05-18T04:00:30.754Z,13.50
2017-05-18T04:02:58.142Z,13.60
2017-05-18T04:05:25.564Z,13.70
2017-05-18T04:07:52.980Z,13.80
2017-05-18T04:10:20.921Z,13.90
2017-05-18T04:12:48.302Z,14.00
2017-05-18T04:15:16.474Z,14.10
2017-05-18T04:17:44.119Z,14.20
2017-05-18T04:20:12.080Z,14.30
2017-05-18T04:22:40.374Z,14.40
2017-05-18T04:25:08.488Z,14.40
2017-05-18T04:27:50.110Z,14.50
2017-05-18T04:30:19.931Z,14.50
2017-05-18T04:32:48.289Z,14.50
2017-05-18T04:35:15.906Z,14.60
2017-05-18T04:37:43.848Z,14.70
2017-05-18T04:40:12.029Z,14.70
2017-05-18T04:45:14.667Z,14.80
2017-05-18T04:47:43.057Z,14.80
2017-05-18T04:50:10.513Z,14.90
2017-05-18T04:52:39.063Z,14.90
2017-05-18T04:55:06.505Z,15.00
2017-05-18T04:57:36.603Z,15.10
2017-05-18T05:00:04.525Z,15.10
2017-05-18T05:02:32.742Z,15.20
2017-05-18T05:05:01.078Z,15.20
2017-05-18T05:07:28.707Z,15.30
2017-05-18T05:09:56.153Z,15.40
2017-05-18T05:12:24.537Z,15.40
2017-05-18T05:14:52.065Z,15.50
2017-05-18T05:17:20.367Z,15.50
2017-05-18T05:19:48.232Z,15.60
2017-05-18T05:22:15.973Z,15.70
2017-05-18T05:24:44.385Z,15.80
2017-05-18T05:27:12.407Z,15.90
2017-05-18T05:29:39.835Z,16.00
2017-05-18T05:32:07.232Z,16.00
2017-05-18T05:34:35.423Z,16.10
2017-05-18T05:37:03.774Z,16.20
2017-05-18T05:39:32.839Z,16.30
2017-05-18T05:42:00.237Z,16.30
2017-05-18T05:44:27.673Z,16.50
2017-05-18T05:46:55.995Z,16.50
2017-05-18T05:49:23.479Z,16.60
2017-05-18T05:51:50.932Z,16.70
2017-05-18T05:54:18.372Z,16.80
2017-05-18T05:56:46.405Z,16.90
2017-05-18T05:59:13.976Z,17.00
2017-05-18T06:01:41.413Z,17.10
2017-05-18T06:04:08.932Z,17.20
2017-05-18T06:06:36.361Z,17.30
2017-05-18T06:09:04.079Z,17.50
2017-05-18T06:11:31.516Z,17.60
2017-05-18T06:13:58.965Z,17.80
2017-05-18T06:16:26.497Z,17.80
2017-05-18T06:18:54.656Z,17.90
2017-05-18T06:21:22.090Z,18.20
2017-05-18T06:23:49.466Z,18.30
2017-05-18T06:26:17.617Z,18.40
2017-05-18T06:28:45.726Z,18.60
2017-05-18T06:31:14.074Z,18.80
2017-05-18T06:33:41.460Z,18.90
2017-05-18T06:36:08.989Z,19.10
2017-05-18T06:38:36.733Z,19.30
2017-05-18T06:41:04.116Z,19.30
2017-05-18T06:43:31.963Z,19.50
2017-05-18T06:45:59.449Z,19.70
2017-05-18T06:48:26.902Z,19.80
2017-05-18T06:50:55.283Z,19.90
2017-05-18T06:53:22.730Z,20.00
2017-05-18T06:55:50.934Z,20.10
2017-05-18T06:58:18.405Z,20.20
2017-05-18T07:00:52.744Z,20.40
2017-05-18T07:03:20.245Z,20.50
2017-05-18T07:05:47.746Z,20.60
2017-05-18T07:08:15.231Z,20.70
2017-05-18T07:10:42.678Z,20.70
2017-05-18T07:13:10.071Z,20.70
2017-05-18T07:15:37.599Z,20.90
2017-05-18T07:18:04.989Z,20.90
2017-05-18T07:20:33.135Z,20.90
2017-05-18T07:23:01.299Z,21.10
2017-05-18T07:25:28.727Z,21.20
2017-05-18T07:27:56.137Z,21.30
2017-05-18T07:30:24.351Z,21.30
2017-05-18T07:32:52.864Z,21.40
2017-05-18T07:35:21.279Z,21.50
2017-05-18T07:37:48.940Z,21.60
2017-05-18T07:40:16.441Z,21.70
2017-05-18T07:42:43.942Z,21.80
2017-05-18T07:45:11.374Z,21.60
2017-05-18T07:47:38.972Z,21.80
2017-05-18T07:50:07.479Z,21.80
2017-05-18T07:52:35.224Z,21.80
2017-05-18T07:55:02.677Z,21.90
2017-05-18T07:57:30.201Z,22.10
2017-05-18T07:59:57.722Z,22.20
2017-05-18T08:02:25.286Z,22.60
2017-05-18T08:04:52.907Z,22.70
2017-05-18T08:07:20.378Z,22.70
2017-05-18T08:09:47.896Z,22.80
2017-05-18T08:12:15.693Z,22.80
2017-05-18T08:14:43.139Z,22.90
2017-05-18T08:17:11.352Z,22.90
2017-05-18T08:19:38.801Z,23.20
2017-05-18T08:22:06.441Z,23.20
2017-05-18T08:24:34.766Z,23.30
2017-05-18T08:27:02.242Z,23.50
2017-05-18T08:29:30.007Z,23.60
2017-05-18T08:31:57.688Z,23.80
2017-05-18T08:34:27.145Z,24.00
2017-05-18T08:36:54.597Z,23.90
2017-05-18T08:39:22.152Z,24.00
2017-05-18T08:41:49.559Z,24.30
2017-05-18T08:44:17.813Z,24.70
2017-05-18T08:46:45.302Z,24.50
2017-05-18T08:49:13.472Z,24.40
2017-05-18T08:51:41.621Z,24.50
2017-05-18T08:54:09.839Z,24.60
2017-05-18T08:56:37.263Z,25.20
2017-05-18T08:59:05.403Z,25.30
2017-05-18T09:01:32.836Z,25.40
2017-05-18T09:04:00.374Z,25.30
2017-05-18T09:06:28.145Z,25.30
2017-05-18T09:08:56.293Z,25.50
2017-05-18T09:11:24.504Z,25.60
2017-05-18T09:13:51.910Z,26.00
2017-05-18T09:16:19.359Z,26.60
2017-05-18T09:18:46.753Z,26.90
2017-05-18T09:21:14.923Z,28.70
2017-05-18T09:23:43.086Z,32.50
2017-05-18T09:26:11.259Z,34.80
2017-05-18T09:28:38.670Z,36.00
2017-05-18T09:31:06.147Z,37.50
2017-05-18T09:33:34.076Z,37.30
2017-05-18T09:36:01.549Z,37.80
2017-05-18T09:38:28.974Z,37.70
2017-05-18T09:40:56.394Z,37.80
2017-05-18T09:43:23.821Z,38.30
2017-05-18T09:45:51.363Z,40.30
2017-05-18T09:48:18.779Z,38.60
2017-05-18T09:50:46.196Z,37.40
2017-05-18T09:53:13.656Z,38.80
2017-05-18T09:55:41.828Z,38.90
2017-05-18T09:58:09.223Z,39.10
2017-05-18T10:00:37.573Z,38.80
2017-05-18T10:03:05.739Z,40.50
2017-05-18T10:05:33.392Z,41.30
2017-05-18T10:08:00.882Z,41.70
2017-05-18T10:10:28.505Z,40.20
2017-05-18T10:12:55.945Z,39.60
2017-05-18T10:15:24.938Z,39.20
2017-05-18T10:17:52.701Z,41.90
2017-05-18T10:20:20.286Z,40.10
2017-05-18T10:22:48.224Z,40.20
2017-05-18T10:25:15.691Z,43.30
2017-05-18T10:27:43.166Z,40.70
2017-05-18T10:30:11.422Z,39.10
2017-05-18T10:32:38.870Z,38.10
2017-05-18T10:35:06.586Z,39.90
2017-05-18T10:37:34.801Z,41.10
2017-05-18T10:40:02.250Z,40.70
2017-05-18T10:42:29.668Z,38.80
2017-05-18T10:44:57.123Z,39.80
2017-05-18T10:47:24.550Z,39.60
2017-05-18T10:49:51.997Z,40.70
2017-05-18T10:52:20.455Z,40.00
2017-05-18T10:54:48.847Z,41.10
2017-05-18T10:57:16.371Z,40.80
2017-05-18T10:59:44.708Z,39.00
2017-05-18T11:02:12.208Z,37.90
2017-05-18T11:04:39.826Z,38.10
2017-05-18T11:07:07.370Z,38.60
2017-05-18T11:09:35.982Z,39.90
2017-05-18T11:12:03.403Z,40.50
2017-05-18T11:14:30.966Z,39.40
2017-05-18T11:16:58.423Z,39.80
2017-05-18T11:19:25.844Z,39.40
2017-05-18T11:21:53.285Z,39.30
2017-05-18T11:24:21.438Z,41.90
2017-05-18T11:26:49.739Z,41.80
2017-05-18T11:29:16.645Z,41.70
2017-05-18T11:31:44.187Z,40.00
2017-05-18T11:34:11.731Z,40.00
2017-05-18T11:36:39.145Z,39.70
2017-05-18T11:39:07.334Z,41.40
2017-05-18T11:41:34.903Z,39.40
2017-05-18T11:44:02.339Z,38.80
2017-05-18T11:46:30.589Z,38.50
2017-05-18T11:49:09.324Z,38.40
2017-05-18T11:51:37.628Z,40.80
2017-05-18T11:54:05.918Z,40.60
2017-05-18T11:56:33.304Z,40.90
2017-05-18T11:59:01.360Z,39.80
2017-05-18T12:01:28.983Z,38.40
2017-05-18T12:03:56.468Z,39.60
2017-05-18T12:06:23.959Z,38.60
2017-05-18T12:08:51.507Z,38.90
2017-05-18T12:11:18.985Z,38.90
2017-05-18T12:13:47.165Z,39.00
2017-05-18T12:16:15.646Z,38.80
2017-05-18T12:18:43.156Z,37.50
2017-05-18T12:21:10.553Z,36.60
2017-05-18T12:23:38.093Z,35.80
2017-05-18T12:26:06.489Z,37.70
2017-05-18T12:28:34.234Z,39.00
2017-05-18T12:31:01.678Z,37.80
2017-05-18T12:33:29.094Z,37.50
2017-05-18T12:35:56.556Z,36.70
2017-05-18T12:38:25.362Z,38.20
2017-05-18T12:40:52.796Z,37.30
2017-05-18T12:43:21.447Z,38.20
2017-05-18T12:45:49.636Z,37.50
2017-05-18T12:48:17.812Z,37.10
2017-05-18T12:50:45.255Z,37.70
2017-05-18T12:53:12.692Z,37.50
2017-05-18T12:55:40.378Z,35.90
2017-05-18T12:58:07.973Z,31.90
2017-05-18T13:00:36.105Z,29.20
2017-05-18T13:03:03.594Z,28.70
2017-05-18T13:05:31.109Z,28.30
2017-05-18T13:07:58.514Z,28.00
2017-05-18T13:10:26.305Z,28.00
2017-05-18T13:12:54.380Z,27.70
2017-05-18T13:15:21.817Z,27.60
2017-05-18T13:17:49.720Z,27.40
2017-05-18T13:20:17.146Z,27.20
2017-05-18T13:22:44.542Z,27.10
2017-05-18T13:25:13.064Z,27.10
2017-05-18T13:27:40.492Z,27.10
2017-05-18T13:30:08.184Z,27.30
2017-05-18T13:32:36.028Z,27.30
2017-05-18T13:35:04.474Z,27.20
2017-05-18T13:37:31.938Z,27.00
2017-05-18T13:39:59.473Z,26.90
2017-05-18T13:42:26.948Z,26.90
2017-05-18T13:44:54.652Z,26.90
2017-05-18T13:47:22.245Z,26.90
2017-05-18T13:49:49.714Z,27.10
2017-05-18T13:52:17.384Z,27.10
2017-05-18T13:54:44.829Z,27.20
2017-05-18T13:57:12.454Z,27.10
2017-05-18T13:59:39.969Z,27.00
2017-05-18T14:02:07.471Z,27.00
2017-05-18T14:04:34.935Z,27.10
2017-05-18T14:07:03.468Z,27.10
2017-05-18T14:09:30.967Z,26.90
2017-05-18T14:11:58.649Z,26.90
2017-05-18T14:14:26.859Z,27.10
2017-05-18T14:16:54.384Z,27.10
2017-05-18T14:19:21.990Z,27.30
2017-05-18T14:21:49.394Z,27.30
2017-05-18T14:24:23.756Z,27.10
2017-05-18T14:26:51.234Z,27.10
2017-05-18T14:29:18.666Z,27.00
2017-05-18T14:31:46.113Z,27.00
2017-05-18T14:34:14.058Z,26.90
2017-05-18T14:36:41.583Z,26.80
2017-05-18T14:39:09.742Z,26.70
2017-05-18T14:41:37.914Z,26.60
2017-05-18T14:44:06.139Z,26.90
2017-05-18T14:46:33.592Z,26.90
2017-05-18T14:49:01.017Z,26.70
2017-05-18T14:51:29.209Z,26.80
2017-05-18T14:53:57.072Z,26.90
2017-05-18T14:56:24.485Z,26.90
2017-05-18T14:58:51.911Z,26.90
2017-05-18T15:01:19.410Z,26.70
2017-05-18T15:03:47.604Z,26.80
2017-05-18T15:06:15.801Z,26.90
2017-05-18T15:08:43.528Z,26.80
2017-05-18T15:11:11.130Z,26.70
2017-05-18T15:13:38.707Z,26.80
2017-05-18T15:16:06.266Z,26.60
2017-05-18T15:18:33.666Z,26.90
2017-05-18T15:21:02.751Z,27.60
2017-05-18T15:23:31.449Z,27.60
2017-05-18T15:25:59.424Z,29.40
2017-05-18T15:28:27.584Z,29.90
2017-05-18T15:30:55.038Z,28.30
2017-05-18T15:33:23.269Z,28.00
2017-05-18T15:35:50.660Z,27.30
2017-05-18T15:38:18.112Z,26.90
2017-05-18T15:43:19.929Z,26.50
2017-05-18T15:45:47.498Z,26.50
2017-05-18T15:48:15.012Z,26.50
2017-05-18T15:50:43.158Z,26.20
2017-05-18T15:53:10.578Z,26.20
2017-05-18T15:55:37.991Z,26.10
2017-05-18T15:58:06.174Z,26.00
2017-05-18T16:00:33.593Z,26.00
2017-05-18T16:03:01.200Z,26.00
2017-05-18T16:05:30.266Z,26.00
2017-05-18T16:07:57.730Z,25.90
2017-05-18T16:10:25.960Z,25.80
2017-05-18T16:12:53.567Z,25.80
2017-05-18T16:15:20.996Z,25.80
2017-05-18T16:17:48.572Z,25.80
2017-05-18T16:20:16.084Z,25.70
2017-05-18T16:22:43.679Z,25.60
2017-05-18T16:25:11.094Z,25.50
2017-05-18T16:27:38.488Z,25.50
2017-05-18T16:30:06.176Z,25.50
2017-05-18T16:32:33.719Z,25.40
2017-05-18T16:35:02.128Z,25.40
2017-05-18T16:37:29.593Z,25.30
2017-05-18T16:39:59.263Z,25.30
2017-05-18T16:42:27.888Z,25.30
2017-05-18T16:44:55.676Z,25.30
2017-05-18T16:47:23.915Z,25.30
2017-05-18T16:49:52.222Z,25.20
2017-05-18T16:52:19.962Z,25.10
2017-05-18T16:54:47.522Z,25.10
2017-05-18T16:57:15.020Z,25.00
2017-05-18T16:59:43.042Z,25.00
2017-05-18T17:02:11.380Z,25.00
2017-05-18T17:04:39.865Z,24.90
2017-05-18T17:07:07.366Z,24.90
2017-05-18T17:09:35.629Z,24.90
2017-05-18T17:14:32.215Z,24.80
2017-05-18T17:16:59.809Z,24.70
2017-05-18T17:19:27.309Z,24.60
2017-05-18T17:21:55.665Z,24.60
2017-05-18T17:24:23.488Z,24.60
2017-05-18T17:26:50.923Z,24.50
2017-05-18T17:29:18.343Z,24.40
2017-05-18T17:31:46.643Z,24.40
2017-05-18T17:34:14.096Z,24.40
2017-05-18T17:36:41.964Z,24.40
2017-05-18T17:39:09.414Z,24.30
2017-05-18T17:41:37.682Z,24.20
2017-05-18T17:44:05.379Z,24.20
2017-05-18T17:46:32.987Z,24.20
2017-05-18T17:49:00.560Z,24.10
2017-05-18T17:51:28.165Z,24.00
2017-05-18T17:53:55.588Z,24.00
2017-05-18T17:56:24.493Z,23.90
2017-05-18T17:58:52.728Z,23.80
2017-05-18T18:01:20.940Z,23.80
2017-05-18T18:03:49.273Z,23.70
2017-05-18T18:06:17.533Z,23.60
2017-05-18T18:08:45.552Z,23.60
2017-05-18T18:11:13.598Z,23.50
2017-05-18T18:13:40.989Z,23.50
2017-05-18T18:16:08.442Z,23.50
2017-05-18T18:18:35.876Z,23.40
2017-05-18T18:21:03.478Z,23.70
2017-05-18T18:23:31.883Z,23.30
2017-05-18T18:25:59.383Z,23.20
2017-05-18T18:28:26.932Z,23.10
2017-05-18T18:30:55.244Z,23.10
2017-05-18T18:33:22.764Z,23.10
2017-05-18T18:35:50.327Z,23.00
2017-05-18T18:38:18.525Z,23.00
2017-05-18T18:40:46.479Z,22.90
2017-05-18T18:43:14.083Z,22.90
2017-05-18T18:45:41.569Z,22.80
2017-05-18T18:48:09.067Z,22.80
2017-05-18T18:50:36.612Z,22.70
2017-05-18T18:53:05.045Z,22.60
2017-05-18T18:55:32.854Z,22.70
2017-05-18T18:58:00.351Z,22.60
2017-05-18T19:00:27.905Z,22.50
2017-05-18T19:02:56.554Z,22.50
2017-05-18T19:05:24.713Z,22.40
2017-05-18T19:07:52.275Z,22.40
2017-05-18T19:10:20.618Z,22.40
2017-05-18T19:12:48.091Z,22.40
2017-05-18T19:15:16.664Z,22.40
2017-05-18T19:17:45.036Z,22.30
2017-05-18T19:20:12.451Z,22.20
2017-05-18T19:22:40.061Z,22.20
2017-05-18T19:25:07.516Z,22.20
2017-05-18T19:27:35.561Z,22.10
2017-05-18T19:30:03.043Z,22.10
2017-05-18T19:32:31.301Z,22.00
2017-05-18T19:34:58.877Z,22.00
2017-05-18T19:37:26.340Z,22.00
2017-05-18T19:39:53.889Z,21.90
2017-05-18T19:42:21.418Z,21.90
2017-05-18T19:44:48.812Z,21.80
2017-05-18T19:47:16.983Z,21.80
2017-05-18T19:49:44.961Z,21.80
2017-05-18T19:52:12.419Z,21.70
2017-05-18T19:54:39.830Z,21.70
2017-05-18T19:57:07.352Z,21.60
2017-05-18T19:59:34.812Z,21.60
2017-05-18T20:02:02.477Z,21.50
2017-05-18T20:04:30.653Z,21.50
2017-05-18T20:06:58.115Z,21.50
2017-05-18T20:09:25.554Z,21.50
2017-05-18T20:11:52.999Z,21.50
2017-05-18T20:14:20.919Z,21.40
2017-05-18T20:16:48.380Z,21.30
2017-05-18T20:19:15.793Z,21.30
2017-05-18T20:21:43.939Z,21.10
2017-05-18T20:24:11.369Z,21.00
2017-05-18T20:26:38.853Z,20.90
2017-05-18T20:29:07.257Z,20.80
2017-05-18T20:31:34.720Z,20.80
2017-05-18T20:34:02.174Z,20.60
2017-05-18T20:36:30.609Z,20.50
2017-05-18T20:38:58.357Z,20.50
2017-05-18T20:41:25.764Z,20.40
2017-05-18T20:43:53.907Z,20.30
2017-05-18T20:46:21.349Z,20.30
2017-05-18T20:48:48.796Z,20.30
2017-05-18T20:51:16.367Z,20.30
2017-05-18T20:53:43.807Z,20.40
2017-05-18T20:56:11.215Z,20.40
2017-05-18T20:58:39.399Z,20.30
2017-05-18T21:01:06.917Z,20.30
2017-05-18T21:03:35.385Z,20.30
2017-05-18T21:06:02.770Z,20.30
2017-05-18T21:08:30.288Z,20.20
2017-05-18T21:10:57.837Z,20.20
2017-05-18T21:13:25.238Z,20.20
2017-05-18T21:15:52.700Z,20.20
2017-05-18T21:18:20.127Z,20.10
2017-05-18T21:20:48.413Z,20.20
2017-05-18T21:23:16.450Z,20.10
2017-05-18T21:25:43.871Z,20.10
2017-05-18T21:28:12.021Z,20.00
2017-05-18T21:30:39.550Z,20.00
2017-05-18T21:33:06.964Z,20.00
2017-05-18T21:35:35.146Z,20.00
2017-05-18T21:38:03.283Z,20.00
2017-05-18T21:40:30.769Z,19.90
2017-05-18T21:42:58.156Z,19.90
2017-05-18T21:45:25.609Z,20.00
2017-05-18T21:47:53.043Z,20.00
2017-05-18T21:50:20.548Z,20.00
2017-05-18T21:52:48.644Z,20.00
2017-05-18T21:55:16.211Z,20.00
2017-05-18T21:57:43.614Z,20.00
2017-05-18T22:00:12.595Z,20.00
2017-05-18T22:02:40.930Z,20.00
2017-05-18T22:05:09.370Z,19.90
2017-05-18T22:07:36.753Z,19.90
2017-05-18T22:10:04.146Z,19.90
2017-05-18T22:12:31.531Z,19.90
2017-05-18T22:14:58.969Z,19.80
2017-05-18T22:17:26.384Z,19.80
2017-05-18T22:19:53.951Z,19.80
2017-05-18T22:22:22.948Z,19.80
2017-05-18T22:24:51.120Z,19.70
2017-05-18T22:27:19.283Z,19.70
2017-05-18T22:29:46.714Z,19.70
2017-05-18T22:32:14.091Z,19.70
2017-05-18T22:34:45.196Z,19.70
2017-05-18T22:37:12.959Z,19.70
2017-05-18T22:39:40.345Z,19.70
2017-05-18T22:42:08.486Z,19.70
2017-05-18T22:44:35.873Z,19.60
2017-05-18T22:47:03.338Z,19.60
2017-05-18T22:49:31.662Z,19.60
2017-05-18T22:51:59.459Z,19.70
2017-05-18T22:54:26.920Z,19.60
2017-05-18T22:56:54.387Z,19.60
2017-05-18T22:59:21.778Z,19.60
2017-05-18T23:01:49.274Z,19.70
2017-05-18T23:04:16.676Z,19.70
2017-05-18T23:06:44.852Z,19.60
2017-05-18T23:09:13.087Z,19.60
2017-05-18T23:11:41.306Z,19.50
2017-05-18T23:14:09.482Z,19.50
2017-05-18T23:16:37.668Z,19.40
2017-05-18T23:19:05.141Z,19.40
2017-05-18T23:21:32.566Z,19.40
2017-05-18T23:24:00.986Z,19.30
2017-05-18T23:26:28.579Z,19.30
2017-05-18T23:28:56.023Z,19.30
2017-05-18T23:31:23.428Z,19.20
2017-05-18T23:33:51.553Z,19.20
2017-05-18T23:36:18.978Z,19.20
2017-05-18T23:38:46.596Z,19.10
2017-05-18T23:41:14.741Z,19.00
2017-05-18T23:43:42.159Z,19.00
2017-05-18T23:46:09.585Z,18.90
2017-05-18T23:48:37.780Z,18.90
2017-05-18T23:51:05.269Z,18.90
2017-05-18T23:53:32.682Z,18.80
2017-05-18T23:56:00.800Z,18.80
2017-05-18T23:58:28.257Z,18.80
